Time;durP1;ratioP1;P1;durP2;ratioP2;P2;SDS_P1;SDS_P2;PMS_P1;PMS_P2;Temp;Humidity;BMP_temperature;BMP_pressure;BME280_temperature;BME280_humidity;BME280_pressure;Samples;Min_cycle;Max_cycle;Signal;HPM_P1;HPM_P2
2022/03/05 00:00:38;;;;;;;;;;;;;;;;;;2098851;28;20331;-44
2022/03/05 00:01:39;;;;;;;;;;;;;;;;;;2094012;28;19936;-44
2022/03/05 00:02:40;;;;;;;;;;;;;;;;;;2097778;28;20357;-44
2022/03/05 00:03:41;;;;;;;;;;;;;;;;;;2098349;28;19924;-44
2022/03/05 00:04:42;;;;;;;;;;;;;;;;;;2096045;28;19931;-45
2022/03/05 00:05:44;;;;;;;;;;;;;;;;;;2096514;28;19931;-44
2022/03/05 00:06:47;;;;;;;;;;;;;;;;;;2097062;28;20412;-45
2022/03/05 00:07:49;;;;;;;;;;;;;;;;;;2093766;28;19976;-44
2022/03/05 00:08:50;;;;;;;;;;;;;;;;;;2098024;28;19991;-44
2022/03/05 00:09:51;;;;;;;;;;;;;;;;;;2095418;28;19960;-43
2022/03/05 00:10:52;;;;;;;;;;;;;;;;;;2096449;28;19967;-45
2022/03/05 00:11:53;;;;;;;;;;;;;;;;;;2093478;28;19979;-46
2022/03/05 00:12:55;;;;;;;;;;;;;;;;;;2092009;28;20011;-49
2022/03/05 00:13:55;;;;;;;;;;;;;;;;;;2095521;28;19964;-48
2022/03/05 00:14:57;;;;;;;;;;;;;;;;;;2098017;28;19931;-48
2022/03/05 00:15:59;;;;;;;;;;;;;;;;;;2095751;28;19964;-48
2022/03/05 00:17:00;;;;;;;;;;;;;;;;;;2098218;28;19925;-48
2022/03/05 00:18:01;;;;;;;;;;;;;;;;;;2097405;28;19978;-50
2022/03/05 00:19:03;;;;;;;;;;;;;;;;;;2096565;28;19928;-49
2022/03/05 00:20:04;;;;;;;;;;;;;;;;;;2092641;28;19925;-48
2022/03/05 00:21:06;;;;;;;;;;;;;;;;;;2091465;28;19924;-49
2022/03/05 00:22:07;;;;;;;;;;;;;;;;;;2096548;28;19967;-48
2022/03/05 00:23:08;;;;;;;;;;;;;;;;;;2098054;28;19925;-52
2022/03/05 00:24:09;;;;;;;;;;;;;;;;;;2096459;28;20025;-49
2022/03/05 00:25:11;;;;;;;;;;;;;;;;;;2094128;28;19933;-49
2022/03/05 00:26:13;;;;;;;;;;;;;;;;;;2097725;28;19970;-51
2022/03/05 00:27:14;;;;;;;;;;;;;;;;;;2094346;28;20412;-49
2022/03/05 00:28:15;;;;;;;;;;;;;;;;;;2097557;28;20376;-48
2022/03/05 00:29:16;;;;;;;;;;;;;;;;;;2098081;28;19975;-51
2022/03/05 00:30:18;;;;;;;;;;;;;;;;;;2096273;28;19925;-49
2022/03/05 00:31:19;;;;;;;;;;;;;;;;;;2099065;28;19960;-48
2022/03/05 00:32:20;;;;;;;;;;;;;;;;;;2103188;28;19927;-48
2022/03/05 00:33:21;;;;;;;;;;;;;;;;;;2095789;28;19931;-50
2022/03/05 00:34:23;;;;;;;;;;;;;;;;;;2097882;28;20065;-52
2022/03/05 00:35:24;;;;;;;;;;;;;;;;;;2096812;28;20317;-48
2022/03/05 00:36:25;;;;;;;;;;;;;;;;;;2092652;28;19924;-45
2022/03/05 00:37:26;;;;;;;;;;;;;;;;;;2097677;28;19971;-44
2022/03/05 00:38:28;;;;;;;;;;;;;;;;;;2095938;28;20389;-44
2022/03/05 00:39:29;;;;;;;;;;;;;;;;;;2097926;28;19931;-44
2022/03/05 00:40:33;;;;;;;;;;;;;;;;;;2098262;28;19928;-50
2022/03/05 00:41:34;;;;;;;;;;;;;;;;;;2095337;28;20376;-45
2022/03/05 00:42:36;;;;;;;;;;;;;;;;;;2098323;28;20132;-44
2022/03/05 00:43:37;;;;;;;;;;;;;;;;;;2095756;28;19925;-45
2022/03/05 00:44:38;;;;;;;;;;;;;;;;;;2096255;28;19938;-45
2022/03/05 00:45:40;;;;;;;;;;;;;;;;;;2098052;28;19936;-45
2022/03/05 00:46:41;;;;;;;;;;;;;;;;;;2094637;28;19924;-44
2022/03/05 00:47:42;;;;;;;;;;;;;;;;;;2097244;28;20051;-44
2022/03/05 00:48:43;;;;;;;;;;;;;;;;;;2097200;28;20020;-44
2022/03/05 00:49:44;;;;;;;;;;;;;;;;;;2093360;28;19931;-44
2022/03/05 00:50:46;;;;;;;;;;;;;;;;;;2105737;28;20069;-45
2022/03/05 00:51:48;;;;;;;;;;;;;;;;;;2097978;28;20011;-45
2022/03/05 00:52:49;;;;;;;;;;;;;;;;;;2095705;28;19925;-45
2022/03/05 00:53:50;;;;;;;;;;;;;;;;;;2098128;28;19924;-49
2022/03/05 00:54:52;;;;;;;;;;;;;;;;;;2097366;28;19924;-50
2022/03/05 00:55:53;;;;;;;;;;;;;;;;;;2095572;28;19948;-51
2022/03/05 00:56:54;;;;;;;;;;;;;;;;;;2097917;28;19972;-49
2022/03/05 00:57:56;;;;;;;;;;;;;;;;;;2096220;28;19970;-48
2022/03/05 00:58:57;;;;;;;;;;;;;;;;;;2096388;28;19964;-50
2022/03/05 00:59:58;;;;;;;;;;;;;;;;;;2098152;28;20377;-52
2022/03/05 01:00:59;;;;;;;;;;;;;;;;;;2094727;28;19982;-44
2022/03/05 01:02:01;;;;;;;;;;;;;;;;;;2097431;28;19966;-45
2022/03/05 01:03:03;;;;;;;;;;;;;;;;;;2097947;28;19924;-45
2022/03/05 01:04:04;;;;;;;;;;;;;;;;;;2094145;28;19931;-45
2022/03/05 01:05:05;;;;;;;;;;;;;;;;;;2097915;28;19925;-44
2022/03/05 01:06:06;;;;;;;;;;;;;;;;;;2096683;28;19974;-45
2022/03/05 01:07:08;;;;;;;;;;;;;;;;;;2094837;28;19932;-44
2022/03/05 01:08:09;;;;;;;;;;;;;;;;;;2098007;28;19931;-49
2022/03/05 01:09:10;;;;;;;;;;;;;;;;;;2095254;28;20598;-44
2022/03/05 01:10:11;;;;;;;;;;;;;;;;;;2091327;28;20235;-44
2022/03/05 01:11:15;;;;;;;;;;;;;;;;;;2089416;28;20333;-44
2022/03/05 01:12:17;;;;;;;;;;;;;;;;;;2092805;28;19947;-49
2022/03/05 01:13:18;;;;;;;;;;;;;;;;;;2094579;28;19932;-48
2022/03/05 01:14:20;;;;;;;;;;;;;;;;;;2097331;28;20404;-49
2022/03/05 01:15:21;;;;;;;;;;;;;;;;;;2097110;28;20346;-51
2022/03/05 01:16:22;;;;;;;;;;;;;;;;;;2097829;28;19931;-49
2022/03/05 01:17:24;;;;;;;;;;;;;;;;;;2094517;28;19924;-51
2022/03/05 01:18:25;;;;;;;;;;;;;;;;;;2094573;28;19964;-49
2022/03/05 01:19:27;;;;;;;;;;;;;;;;;;2097596;28;19925;-51
2022/03/05 01:20:29;;;;;;;;;;;;;;;;;;2095569;28;19924;-51
2022/03/05 01:21:30;;;;;;;;;;;;;;;;;;2095687;28;19960;-50
2022/03/05 01:22:32;;;;;;;;;;;;;;;;;;2096135;28;19980;-44
2022/03/05 01:23:33;;;;;;;;;;;;;;;;;;2094394;28;19925;-44
2022/03/05 01:24:35;;;;;;;;;;;;;;;;;;2097602;28;19948;-44
2022/03/05 01:25:40;;;;;;;;;;;;;;;;;;2097325;28;19935;-45
2022/03/05 01:26:41;;;;;;;;;;;;;;;;;;2095713;28;19931;-44
2022/03/05 01:27:42;;;;;;;;;;;;;;;;;;2097393;28;19931;-44
2022/03/05 01:28:43;;;;;;;;;;;;;;;;;;2096750;28;20003;-44
2022/03/05 01:29:46;;;;;;;;;;;;;;;;;;2095948;28;20384;-44
2022/03/05 01:30:47;;;;;;;;;;;;;;;;;;2097441;28;19925;-50
2022/03/05 01:31:49;;;;;;;;;;;;;;;;;;2097102;28;19983;-44
2022/03/05 01:32:50;;;;;;;;;;;;;;;;;;2095441;28;20412;-45
2022/03/05 01:33:51;;;;;;;;;;;;;;;;;;2097556;28;19928;-49
2022/03/05 01:34:53;;;;;;;;;;;;;;;;;;2095590;28;19986;-52
2022/03/05 01:35:54;;;;;;;;;;;;;;;;;;2097836;28;19967;-51
2022/03/05 01:36:55;;;;;;;;;;;;;;;;;;2097662;28;20259;-52
2022/03/05 01:37:57;;;;;;;;;;;;;;;;;;2094416;28;19925;-49
2022/03/05 01:38:58;;;;;;;;;;;;;;;;;;2098168;28;19928;-49
2022/03/05 01:39:59;;;;;;;;;;;;;;;;;;2096894;28;20412;-48
2022/03/05 01:41:00;;;;;;;;;;;;;;;;;;2096019;28;19925;-51
2022/03/05 01:42:01;;;;;;;;;;;;;;;;;;2097488;28;20424;-50
2022/03/05 01:43:02;;;;;;;;;;;;;;;;;;2097066;28;19924;-49
2022/03/05 01:44:04;;;;;;;;;;;;;;;;;;2096385;28;19925;-49
2022/03/05 01:45:05;;;;;;;;;;;;;;;;;;2097820;28;19928;-50
2022/03/05 01:46:06;;;;;;;;;;;;;;;;;;2095679;28;20929;-51
2022/03/05 01:47:07;;;;;;;;;;;;;;;;;;2094990;28;19947;-49
2022/03/05 01:48:08;;;;;;;;;;;;;;;;;;2097640;28;19963;-49
2022/03/05 01:49:10;;;;;;;;;;;;;;;;;;2095197;28;19928;-52
2022/03/05 01:50:11;;;;;;;;;;;;;;;;;;2098790;28;20296;-44
2022/03/05 01:51:14;;;;;;;;;;;;;;;;;;2096015;28;19993;-44
2022/03/05 01:52:14;;;;;;;;;;;;;;;;;;2094434;28;19959;-44
2022/03/05 01:53:16;;;;;;;;;;;;;;;;;;2097596;28;20396;-45
2022/03/05 01:54:17;;;;;;;;;;;;;;;;;;2096805;28;19976;-44
2022/03/05 01:55:18;;;;;;;;;;;;;;;;;;2096195;28;19924;-44
2022/03/05 01:56:19;;;;;;;;;;;;;;;;;;2097526;28;19924;-44
2022/03/05 01:57:21;;;;;;;;;;;;;;;;;;2095689;28;20259;-44
2022/03/05 01:58:22;;;;;;;;;;;;;;;;;;2097656;28;20005;-49
2022/03/05 01:59:23;;;;;;;;;;;;;;;;;;2097664;28;20293;-49
2022/03/05 02:00:24;;;;;;;;;;;;;;;;;;2095037;28;19925;-50
2022/03/05 02:01:26;;;;;;;;;;;;;;;;;;2097436;28;19965;-51
2022/03/05 02:02:27;;;;;;;;;;;;;;;;;;2096862;28;19924;-45
2022/03/05 02:03:28;;;;;;;;;;;;;;;;;;2095653;28;20404;-45
2022/03/05 02:04:29;;;;;;;;;;;;;;;;;;2097733;28;19935;-49
2022/03/05 02:05:31;;;;;;;;;;;;;;;;;;2095636;28;19950;-49
2022/03/05 02:06:32;;;;;;;;;;;;;;;;;;2094878;28;19967;-52
2022/03/05 02:07:34;;;;;;;;;;;;;;;;;;2097158;28;19924;-49
2022/03/05 02:08:35;;;;;;;;;;;;;;;;;;2095459;28;19979;-51
2022/03/05 02:09:36;;;;;;;;;;;;;;;;;;2096503;28;19925;-50
2022/03/05 02:10:38;;;;;;;;;;;;;;;;;;2097705;28;19963;-45
2022/03/05 02:11:39;;;;;;;;;;;;;;;;;;2094693;28;19924;-52
2022/03/05 02:12:40;;;;;;;;;;;;;;;;;;2097265;28;20432;-49
2022/03/05 02:13:42;;;;;;;;;;;;;;;;;;2097688;28;19932;-51
2022/03/05 02:14:43;;;;;;;;;;;;;;;;;;2095239;28;19964;-50
2022/03/05 02:15:44;;;;;;;;;;;;;;;;;;2097858;28;19930;-45
2022/03/05 02:16:46;;;;;;;;;;;;;;;;;;2095996;28;20011;-44
2022/03/05 02:17:47;;;;;;;;;;;;;;;;;;2095191;28;19928;-49
2022/03/05 02:18:48;;;;;;;;;;;;;;;;;;2097467;28;20015;-50
2022/03/05 02:19:49;;;;;;;;;;;;;;;;;;2094461;28;19960;-52
2022/03/05 02:20:51;;;;;;;;;;;;;;;;;;2095862;28;20434;-49
2022/03/05 02:21:52;;;;;;;;;;;;;;;;;;2097445;28;20331;-51
2022/03/05 02:22:54;;;;;;;;;;;;;;;;;;2095822;28;19928;-52
2022/03/05 02:23:56;;;;;;;;;;;;;;;;;;2089497;28;19929;-48
2022/03/05 02:24:58;;;;;;;;;;;;;;;;;;2089218;28;19972;-48
2022/03/05 02:26:00;;;;;;;;;;;;;;;;;;2093943;28;20012;-48
2022/03/05 02:27:02;;;;;;;;;;;;;;;;;;2096993;28;19970;-48
2022/03/05 02:28:03;;;;;;;;;;;;;;;;;;2097109;28;20007;-49
2022/03/05 02:29:04;;;;;;;;;;;;;;;;;;2096113;28;19989;-50
2022/03/05 02:30:05;;;;;;;;;;;;;;;;;;2098921;28;19968;-49
2022/03/05 02:31:07;;;;;;;;;;;;;;;;;;2096882;28;19933;-48
2022/03/05 02:32:08;;;;;;;;;;;;;;;;;;2098370;28;20003;-49
2022/03/05 02:33:09;;;;;;;;;;;;;;;;;;2098895;28;20356;-49
2022/03/05 02:34:11;;;;;;;;;;;;;;;;;;2095247;28;19924;-49
2022/03/05 02:35:12;;;;;;;;;;;;;;;;;;2098486;28;20305;-50
2022/03/05 02:36:13;;;;;;;;;;;;;;;;;;2098304;28;20294;-49
2022/03/05 02:37:15;;;;;;;;;;;;;;;;;;2093931;28;19925;-52
2022/03/05 02:38:16;;;;;;;;;;;;;;;;;;2090481;28;19932;-50
2022/03/05 02:39:17;;;;;;;;;;;;;;;;;;2097063;28;19936;-49
2022/03/05 02:40:18;;;;;;;;;;;;;;;;;;2097439;28;20338;-49
2022/03/05 02:41:20;;;;;;;;;;;;;;;;;;2098546;28;19935;-48
2022/03/05 02:42:21;;;;;;;;;;;;;;;;;;2096641;28;19979;-50
2022/03/05 02:43:22;;;;;;;;;;;;;;;;;;2098590;28;19990;-49
2022/03/05 02:44:23;;;;;;;;;;;;;;;;;;2098994;28;20027;-49
2022/03/05 02:45:25;;;;;;;;;;;;;;;;;;2096405;28;20373;-49
2022/03/05 02:46:28;;;;;;;;;;;;;;;;;;2098710;28;20019;-49
2022/03/05 02:47:29;;;;;;;;;;;;;;;;;;2098466;28;19924;-51
2022/03/05 02:48:33;;;;;;;;;;;;;;;;;;2094227;28;19929;-48
2022/03/05 02:49:34;;;;;;;;;;;;;;;;;;2090581;28;19929;-49
2022/03/05 02:50:35;;;;;;;;;;;;;;;;;;2096494;28;19925;-49
2022/03/05 02:51:37;;;;;;;;;;;;;;;;;;2097099;28;20298;-48
2022/03/05 02:52:38;;;;;;;;;;;;;;;;;;2098702;28;19931;-52
2022/03/05 02:53:39;;;;;;;;;;;;;;;;;;2095117;28;19924;-44
2022/03/05 02:54:40;;;;;;;;;;;;;;;;;;2097690;28;20672;-49
2022/03/05 02:55:42;;;;;;;;;;;;;;;;;;2098690;28;19931;-49
2022/03/05 02:56:43;;;;;;;;;;;;;;;;;;2094821;28;19925;-48
2022/03/05 02:57:45;;;;;;;;;;;;;;;;;;2099206;28;19946;-44
2022/03/05 02:58:46;;;;;;;;;;;;;;;;;;2098948;28;20007;-44
2022/03/05 02:59:47;;;;;;;;;;;;;;;;;;2096402;28;20021;-44
2022/03/05 03:00:50;;;;;;;;;;;;;;;;;;2098894;28;19924;-44
2022/03/05 03:01:51;;;;;;;;;;;;;;;;;;2096493;28;20332;-44
2022/03/05 03:02:53;;;;;;;;;;;;;;;;;;2096035;28;20011;-44
2022/03/05 03:03:54;;;;;;;;;;;;;;;;;;2093967;28;19925;-44
2022/03/05 03:04:55;;;;;;;;;;;;;;;;;;2091970;28;19924;-44
2022/03/05 03:05:56;;;;;;;;;;;;;;;;;;2098296;28;20046;-44
2022/03/05 03:06:58;;;;;;;;;;;;;;;;;;2098700;28;19951;-45
2022/03/05 03:07:59;;;;;;;;;;;;;;;;;;2093792;28;19932;-44
2022/03/05 03:09:00;;;;;;;;;;;;;;;;;;2098639;28;19928;-44
2022/03/05 03:10:01;;;;;;;;;;;;;;;;;;2098663;28;19959;-45
2022/03/05 03:11:04;;;;;;;;;;;;;;;;;;2096484;28;20462;-48
2022/03/05 03:12:05;;;;;;;;;;;;;;;;;;2099093;28;19925;-49
2022/03/05 03:13:07;;;;;;;;;;;;;;;;;;2098122;28;20318;-48
2022/03/05 03:14:08;;;;;;;;;;;;;;;;;;2093597;28;19968;-44
2022/03/05 03:15:10;;;;;;;;;;;;;;;;;;2090547;28;20149;-44
2022/03/05 03:16:11;;;;;;;;;;;;;;;;;;2090803;28;20023;-44
2022/03/05 03:17:12;;;;;;;;;;;;;;;;;;2096286;28;19924;-44
2022/03/05 03:18:13;;;;;;;;;;;;;;;;;;2097819;28;20415;-44
2022/03/05 03:19:15;;;;;;;;;;;;;;;;;;2096370;28;19964;-44
2022/03/05 03:20:16;;;;;;;;;;;;;;;;;;2097616;28;20003;-45
2022/03/05 03:21:17;;;;;;;;;;;;;;;;;;2098432;28;19963;-44
2022/03/05 03:22:19;;;;;;;;;;;;;;;;;;2094764;28;19931;-44
2022/03/05 03:23:21;;;;;;;;;;;;;;;;;;2098705;28;19928;-45
2022/03/05 03:24:24;;;;;;;;;;;;;;;;;;2097383;28;19925;-44
2022/03/05 03:25:25;;;;;;;;;;;;;;;;;;2093397;28;19925;-45
2022/03/05 03:26:26;;;;;;;;;;;;;;;;;;2090881;28;20452;-44
2022/03/05 03:27:27;;;;;;;;;;;;;;;;;;2095975;28;19928;-49
2022/03/05 03:28:29;;;;;;;;;;;;;;;;;;2095994;28;19986;-53
2022/03/05 03:29:30;;;;;;;;;;;;;;;;;;2092233;28;19929;-51
2022/03/05 03:30:31;;;;;;;;;;;;;;;;;;2096390;28;19932;-49
2022/03/05 03:31:32;;;;;;;;;;;;;;;;;;2101132;28;20368;-49
2022/03/05 03:32:34;;;;;;;;;;;;;;;;;;2106710;28;19924;-52
2022/03/05 03:33:35;;;;;;;;;;;;;;;;;;2096914;28;20012;-51
2022/03/05 03:34:36;;;;;;;;;;;;;;;;;;2098492;28;19987;-52
2022/03/05 03:35:38;;;;;;;;;;;;;;;;;;2098740;28;19947;-45
2022/03/05 03:36:39;;;;;;;;;;;;;;;;;;2096281;28;19931;-45
2022/03/05 03:37:40;;;;;;;;;;;;;;;;;;2098255;28;19932;-44
2022/03/05 03:38:42;;;;;;;;;;;;;;;;;;2097222;28;19928;-45
2022/03/05 03:39:43;;;;;;;;;;;;;;;;;;2096753;28;19931;-44
2022/03/05 03:40:44;;;;;;;;;;;;;;;;;;2098448;28;19924;-44
2022/03/05 03:41:45;;;;;;;;;;;;;;;;;;2095471;28;19932;-44
2022/03/05 03:42:46;;;;;;;;;;;;;;;;;;2097033;28;19987;-44
2022/03/05 03:43:47;;;;;;;;;;;;;;;;;;2098413;28;20397;-44
2022/03/05 03:44:49;;;;;;;;;;;;;;;;;;2096951;28;20402;-44
2022/03/05 03:45:50;;;;;;;;;;;;;;;;;;2090298;28;19929;-49
2022/03/05 03:46:53;;;;;;;;;;;;;;;;;;2090019;28;20019;-49
2022/03/05 03:47:55;;;;;;;;;;;;;;;;;;2095617;28;19966;-49
2022/03/05 03:48:56;;;;;;;;;;;;;;;;;;2098332;28;19924;-45
2022/03/05 03:49:57;;;;;;;;;;;;;;;;;;2099110;28;19931;-44
2022/03/05 03:50:58;;;;;;;;;;;;;;;;;;2096114;28;19928;-44
2022/03/05 03:52:00;;;;;;;;;;;;;;;;;;2098633;28;19924;-53
2022/03/05 03:53:02;;;;;;;;;;;;;;;;;;2097300;28;19975;-52
2022/03/05 03:54:03;;;;;;;;;;;;;;;;;;2096949;28;19982;-48
2022/03/05 03:55:04;;;;;;;;;;;;;;;;;;2098317;28;20014;-52
2022/03/05 03:56:06;;;;;;;;;;;;;;;;;;2097089;28;19971;-44
2022/03/05 03:57:07;;;;;;;;;;;;;;;;;;2097449;28;19928;-45
2022/03/05 03:58:09;;;;;;;;;;;;;;;;;;2093281;28;20045;-44
2022/03/05 03:59:10;;;;;;;;;;;;;;;;;;2094741;28;19971;-44
2022/03/05 04:00:11;;;;;;;;;;;;;;;;;;2098133;28;19931;-44
2022/03/05 04:01:12;;;;;;;;;;;;;;;;;;2092298;28;19925;-50
2022/03/05 04:02:14;;;;;;;;;;;;;;;;;;2095271;28;19939;-49
2022/03/05 04:03:15;;;;;;;;;;;;;;;;;;2098366;28;19924;-50
2022/03/05 04:04:16;;;;;;;;;;;;;;;;;;2097616;28;19970;-50
2022/03/05 04:05:17;;;;;;;;;;;;;;;;;;2097026;28;20332;-48
2022/03/05 04:06:19;;;;;;;;;;;;;;;;;;2098076;28;19928;-52
2022/03/05 04:08:42;;;;;;;;;;;;;;;;;;2089831;28;20377;-44
2022/03/05 04:09:43;;;;;;;;;;;;;;;;;;2089850;28;20000;-44
2022/03/05 04:10:45;;;;;;;;;;;;;;;;;;2094481;28;20014;-45
2022/03/05 04:11:46;;;;;;;;;;;;;;;;;;2098135;28;20011;-45
2022/03/05 04:12:47;;;;;;;;;;;;;;;;;;2097204;28;19929;-45
2022/03/05 04:13:48;;;;;;;;;;;;;;;;;;2096684;28;20429;-44
2022/03/05 04:14:49;;;;;;;;;;;;;;;;;;2098142;28;19977;-44
2022/03/05 04:15:50;;;;;;;;;;;;;;;;;;2097076;28;23900;-44
2022/03/05 04:16:52;;;;;;;;;;;;;;;;;;2097163;28;19924;-45
2022/03/05 04:17:53;;;;;;;;;;;;;;;;;;2098502;28;19925;-45
2022/03/05 04:18:54;;;;;;;;;;;;;;;;;;2096006;28;19931;-44
2022/03/05 04:19:55;;;;;;;;;;;;;;;;;;2098106;28;19954;-44
2022/03/05 04:20:57;;;;;;;;;;;;;;;;;;2098326;28;19946;-49
2022/03/05 04:21:58;;;;;;;;;;;;;;;;;;2094342;28;19928;-49
2022/03/05 04:22:59;;;;;;;;;;;;;;;;;;2097981;28;19946;-49
2022/03/05 04:24:00;;;;;;;;;;;;;;;;;;2097536;28;19998;-50
2022/03/05 04:25:02;;;;;;;;;;;;;;;;;;2095527;28;19924;-50
2022/03/05 04:26:03;;;;;;;;;;;;;;;;;;2098112;28;19931;-53
2022/03/05 04:27:05;;;;;;;;;;;;;;;;;;2096433;28;19925;-49
2022/03/05 04:28:05;;;;;;;;;;;;;;;;;;2096602;28;19990;-49
2022/03/05 04:29:07;;;;;;;;;;;;;;;;;;2097953;28;19929;-49
2022/03/05 04:30:09;;;;;;;;;;;;;;;;;;2094594;28;19975;-53
2022/03/05 04:31:10;;;;;;;;;;;;;;;;;;2097856;28;19931;-48
2022/03/05 04:32:11;;;;;;;;;;;;;;;;;;2098170;28;20409;-53
2022/03/05 04:33:12;;;;;;;;;;;;;;;;;;2096185;28;19924;-50
2022/03/05 04:34:14;;;;;;;;;;;;;;;;;;2098012;28;19924;-50
2022/03/05 04:35:16;;;;;;;;;;;;;;;;;;2097245;28;20081;-49
2022/03/05 04:36:17;;;;;;;;;;;;;;;;;;2096364;28;19924;-44
2022/03/05 04:37:18;;;;;;;;;;;;;;;;;;2097833;28;20381;-44
2022/03/05 04:38:20;;;;;;;;;;;;;;;;;;2095371;28;19955;-49
2022/03/05 04:39:21;;;;;;;;;;;;;;;;;;2095869;28;19989;-50
2022/03/05 04:40:23;;;;;;;;;;;;;;;;;;2097991;28;20266;-49
2022/03/05 04:41:25;;;;;;;;;;;;;;;;;;2095651;28;20058;-49
2022/03/05 04:42:26;;;;;;;;;;;;;;;;;;2096809;28;19975;-50
2022/03/05 04:43:27;;;;;;;;;;;;;;;;;;2097929;28;19959;-50
2022/03/05 04:44:29;;;;;;;;;;;;;;;;;;2095711;28;20009;-51
2022/03/05 04:45:30;;;;;;;;;;;;;;;;;;2098087;28;19978;-53
2022/03/05 04:46:31;;;;;;;;;;;;;;;;;;2097426;28;20278;-52
2022/03/05 04:47:32;;;;;;;;;;;;;;;;;;2095096;28;20333;-49
2022/03/05 04:48:34;;;;;;;;;;;;;;;;;;2097594;28;19924;-44
2022/03/05 04:49:35;;;;;;;;;;;;;;;;;;2097004;28;19956;-45
2022/03/05 04:50:36;;;;;;;;;;;;;;;;;;2096669;28;19924;-45
2022/03/05 04:51:37;;;;;;;;;;;;;;;;;;2097010;28;19932;-45
2022/03/05 04:52:39;;;;;;;;;;;;;;;;;;2094748;28;19925;-47
2022/03/05 04:53:41;;;;;;;;;;;;;;;;;;2097843;28;19935;-44
2022/03/05 04:54:43;;;;;;;;;;;;;;;;;;2097391;28;19932;-49
2022/03/05 04:55:45;;;;;;;;;;;;;;;;;;2095701;28;20366;-48
2022/03/05 04:56:46;;;;;;;;;;;;;;;;;;2098011;28;19935;-49
2022/03/05 04:57:47;;;;;;;;;;;;;;;;;;2097689;28;19931;-44
2022/03/05 04:58:49;;;;;;;;;;;;;;;;;;2095675;28;19952;-44
2022/03/05 04:59:50;;;;;;;;;;;;;;;;;;2097928;28;20015;-45
2022/03/05 05:00:51;;;;;;;;;;;;;;;;;;2097347;28;20007;-45
2022/03/05 05:01:52;;;;;;;;;;;;;;;;;;2095917;28;20055;-44
2022/03/05 05:02:54;;;;;;;;;;;;;;;;;;2097955;28;19925;-44
2022/03/05 05:03:56;;;;;;;;;;;;;;;;;;2096194;28;19963;-44
2022/03/05 05:04:57;;;;;;;;;;;;;;;;;;2097811;28;19947;-44
2022/03/05 05:05:58;;;;;;;;;;;;;;;;;;2097967;28;20309;-44
2022/03/05 05:07:02;;;;;;;;;;;;;;;;;;2095902;28;19925;-44
2022/03/05 05:08:03;;;;;;;;;;;;;;;;;;2097869;28;20415;-44
2022/03/05 05:09:04;;;;;;;;;;;;;;;;;;2097676;28;19924;-44
2022/03/05 05:10:05;;;;;;;;;;;;;;;;;;2095568;28;20602;-44
2022/03/05 05:11:06;;;;;;;;;;;;;;;;;;2097816;28;19940;-44
2022/03/05 05:12:07;;;;;;;;;;;;;;;;;;2096481;28;20329;-44
2022/03/05 05:13:09;;;;;;;;;;;;;;;;;;2096344;28;19924;-44
2022/03/05 05:14:10;;;;;;;;;;;;;;;;;;2097782;28;19956;-45
2022/03/05 05:15:12;;;;;;;;;;;;;;;;;;2094039;28;20363;-44
2022/03/05 05:16:13;;;;;;;;;;;;;;;;;;2097817;28;19972;-50
2022/03/05 05:17:14;;;;;;;;;;;;;;;;;;2098022;28;20011;-48
2022/03/05 05:18:15;;;;;;;;;;;;;;;;;;2094247;28;19924;-48
2022/03/05 05:19:27;;;;;;;;;;;;;;;;;;2097669;28;19928;-49
2022/03/05 05:20:29;;;;;;;;;;;;;;;;;;2097057;28;19963;-49
2022/03/05 05:21:30;;;;;;;;;;;;;;;;;;2095119;28;19934;-50
2022/03/05 05:22:33;;;;;;;;;;;;;;;;;;2097631;28;20019;-44
2022/03/05 05:23:34;;;;;;;;;;;;;;;;;;2096819;28;20340;-44
2022/03/05 05:24:35;;;;;;;;;;;;;;;;;;2093548;28;19932;-44
2022/03/05 05:25:36;;;;;;;;;;;;;;;;;;2095285;28;19924;-45
2022/03/05 05:26:38;;;;;;;;;;;;;;;;;;2093626;28;20348;-44
2022/03/05 05:27:39;;;;;;;;;;;;;;;;;;2091938;28;19925;-44
2022/03/05 05:28:40;;;;;;;;;;;;;;;;;;2094385;28;19928;-44
2022/03/05 05:29:42;;;;;;;;;;;;;;;;;;2095376;28;19979;-45
2022/03/05 05:30:43;;;;;;;;;;;;;;;;;;2092939;28;19924;-49
2022/03/05 05:31:45;;;;;;;;;;;;;;;;;;2094718;28;19925;-50
2022/03/05 05:32:46;;;;;;;;;;;;;;;;;;2094850;28;19947;-51
2022/03/05 05:33:49;;;;;;;;;;;;;;;;;;2096601;28;19924;-44
2022/03/05 05:34:50;;;;;;;;;;;;;;;;;;2093776;28;20263;-49
2022/03/05 05:35:52;;;;;;;;;;;;;;;;;;2095800;28;20405;-49
2022/03/05 05:36:53;;;;;;;;;;;;;;;;;;2098557;28;19924;-52
2022/03/05 05:37:54;;;;;;;;;;;;;;;;;;2093879;28;19976;-49
2022/03/05 05:38:55;;;;;;;;;;;;;;;;;;2096973;28;20019;-49
2022/03/05 05:39:57;;;;;;;;;;;;;;;;;;2092649;28;20378;-49
2022/03/05 05:40:58;;;;;;;;;;;;;;;;;;2091509;28;20385;-48
2022/03/05 05:41:59;;;;;;;;;;;;;;;;;;2094966;28;19932;-44
2022/03/05 05:43:00;;;;;;;;;;;;;;;;;;2095665;28;19935;-44
2022/03/05 05:44:02;;;;;;;;;;;;;;;;;;2091883;28;20270;-49
2022/03/05 05:45:03;;;;;;;;;;;;;;;;;;2094289;28;19936;-49
2022/03/05 05:46:04;;;;;;;;;;;;;;;;;;2090537;28;19970;-49
2022/03/05 05:47:25;;;;;;;;;;;;;;;;;;2094631;28;19931;-49
2022/03/05 05:48:26;;;;;;;;;;;;;;;;;;2089644;28;19975;-49
2022/03/05 05:49:28;;;;;;;;;;;;;;;;;;2090119;28;19964;-48
2022/03/05 05:50:29;;;;;;;;;;;;;;;;;;2099859;28;19924;-49
2022/03/05 05:51:32;;;;;;;;;;;;;;;;;;2093929;28;20419;-48
2022/03/05 05:52:33;;;;;;;;;;;;;;;;;;2092959;28;20296;-49
2022/03/05 05:53:34;;;;;;;;;;;;;;;;;;2095233;28;20490;-50
2022/03/05 05:54:35;;;;;;;;;;;;;;;;;;2095265;28;19964;-48
2022/03/05 05:55:36;;;;;;;;;;;;;;;;;;2095865;28;19924;-49
2022/03/05 05:56:37;;;;;;;;;;;;;;;;;;2097596;28;20389;-49
2022/03/05 05:57:39;;;;;;;;;;;;;;;;;;2095539;28;19928;-49
2022/03/05 05:58:40;;;;;;;;;;;;;;;;;;2090113;28;19948;-50
2022/03/05 05:59:41;;;;;;;;;;;;;;;;;;2095496;28;19932;-45
2022/03/05 06:00:42;;;;;;;;;;;;;;;;;;2091155;28;20004;-44
2022/03/05 06:01:44;;;;;;;;;;;;;;;;;;2089204;28;20413;-45
2022/03/05 06:02:45;;;;;;;;;;;;;;;;;;2093488;28;20407;-46
2022/03/05 06:03:46;;;;;;;;;;;;;;;;;;2093608;28;19932;-45
2022/03/05 06:04:47;;;;;;;;;;;;;;;;;;2098768;28;20050;-48
2022/03/05 06:05:49;;;;;;;;;;;;;;;;;;2098299;28;20335;-49
2022/03/05 06:06:50;;;;;;;;;;;;;;;;;;2096126;28;20421;-45
2022/03/05 06:07:51;;;;;;;;;;;;;;;;;;2096899;28;19932;-44
2022/03/05 06:08:52;;;;;;;;;;;;;;;;;;2097824;28;20078;-44
2022/03/05 06:09:54;;;;;;;;;;;;;;;;;;2091824;28;20361;-46
2022/03/05 06:10:57;;;;;;;;;;;;;;;;;;2090810;28;20125;-45
2022/03/05 06:11:58;;;;;;;;;;;;;;;;;;2093316;28;19979;-44
2022/03/05 06:12:59;;;;;;;;;;;;;;;;;;2099213;28;20266;-50
2022/03/05 06:14:01;;;;;;;;;;;;;;;;;;2097329;28;19934;-45
2022/03/05 06:15:03;;;;;;;;;;;;;;;;;;2094425;28;19964;-45
2022/03/05 06:16:04;;;;;;;;;;;;;;;;;;2098470;28;20461;-44
2022/03/05 06:17:06;;;;;;;;;;;;;;;;;;2092687;28;19925;-45
2022/03/05 06:18:08;;;;;;;;;;;;;;;;;;2097244;28;20032;-44
2022/03/05 06:19:09;;;;;;;;;;;;;;;;;;2092714;28;20062;-44
2022/03/05 06:20:10;;;;;;;;;;;;;;;;;;2092745;28;20034;-50
2022/03/05 06:21:12;;;;;;;;;;;;;;;;;;2097438;28;19932;-46
2022/03/05 06:22:13;;;;;;;;;;;;;;;;;;2098514;28;19960;-45
2022/03/05 06:23:14;;;;;;;;;;;;;;;;;;2094521;28;19933;-51
2022/03/05 06:24:15;;;;;;;;;;;;;;;;;;2097861;28;19956;-49
2022/03/05 06:25:17;;;;;;;;;;;;;;;;;;2099055;28;19924;-44
2022/03/05 06:26:19;;;;;;;;;;;;;;;;;;2094883;28;19932;-44
2022/03/05 06:27:20;;;;;;;;;;;;;;;;;;2096206;28;20226;-45
2022/03/05 06:28:21;;;;;;;;;;;;;;;;;;2094377;28;19962;-50
2022/03/05 06:29:22;;;;;;;;;;;;;;;;;;2094504;28;19971;-50
2022/03/05 06:30:23;;;;;;;;;;;;;;;;;;2094421;28;20584;-49
2022/03/05 06:31:25;;;;;;;;;;;;;;;;;;2092555;28;19924;-50
2022/03/05 06:32:26;;;;;;;;;;;;;;;;;;2093232;28;20017;-49
2022/03/05 06:33:27;;;;;;;;;;;;;;;;;;2094805;28;19985;-44
2022/03/05 06:34:28;;;;;;;;;;;;;;;;;;2093618;28;19964;-44
2022/03/05 06:35:29;;;;;;;;;;;;;;;;;;2096336;28;19924;-45
2022/03/05 06:36:30;;;;;;;;;;;;;;;;;;2098353;28;19928;-45
2022/03/05 06:37:32;;;;;;;;;;;;;;;;;;2096963;28;20006;-50
2022/03/05 06:38:33;;;;;;;;;;;;;;;;;;2098561;28;20297;-50
2022/03/05 06:39:34;;;;;;;;;;;;;;;;;;2095356;28;19979;-50
2022/03/05 06:40:36;;;;;;;;;;;;;;;;;;2098463;28;19970;-48
2022/03/05 06:41:37;;;;;;;;;;;;;;;;;;2097841;28;20320;-48
2022/03/05 06:42:39;;;;;;;;;;;;;;;;;;2096338;28;20451;-45
2022/03/05 06:43:40;;;;;;;;;;;;;;;;;;2096315;28;19993;-45
2022/03/05 06:44:41;;;;;;;;;;;;;;;;;;2098708;28;20348;-44
2022/03/05 06:45:43;;;;;;;;;;;;;;;;;;2096034;28;19930;-44
2022/03/05 06:46:44;;;;;;;;;;;;;;;;;;2098022;28;19925;-44
2022/03/05 06:47:45;;;;;;;;;;;;;;;;;;2097060;28;19976;-45
2022/03/05 06:48:47;;;;;;;;;;;;;;;;;;2091987;28;19928;-45
2022/03/05 06:49:49;;;;;;;;;;;;;;;;;;2095756;28;19931;-48
2022/03/05 06:50:51;;;;;;;;;;;;;;;;;;2093459;28;19924;-48
2022/03/05 06:51:52;;;;;;;;;;;;;;;;;;2097464;28;20455;-49
2022/03/05 06:52:53;;;;;;;;;;;;;;;;;;2096916;28;20062;-49
2022/03/05 06:53:58;;;;;;;;;;;;;;;;;;2095389;28;19929;-49
2022/03/05 06:54:59;;;;;;;;;;;;;;;;;;2098940;28;20016;-48
2022/03/05 06:56:01;;;;;;;;;;;;;;;;;;2098593;28;19928;-49
2022/03/05 06:57:02;;;;;;;;;;;;;;;;;;2096449;28;20385;-45
2022/03/05 06:58:03;;;;;;;;;;;;;;;;;;2098058;28;19932;-46
2022/03/05 06:59:04;;;;;;;;;;;;;;;;;;2096349;28;19979;-45
2022/03/05 07:00:08;;;;;;;;;;;;;;;;;;2092476;28;19929;-45
2022/03/05 07:01:10;;;;;;;;;;;;;;;;;;2091703;28;19947;-45